Time;durP1;ratioP1;P1;durP2;ratioP2;P2;SDS_P1;SDS_P2;PMS_P1;PMS_P2;Temp;Humidity;BMP_temperature;BMP_pressure;BME280_temperature;BME280_humidity;BME280_pressure;Samples;Min_cycle;Max_cycle;Signal;HPM_P1;HPM_P2
2021/10/29 00:02:09;;;;;;;;;18.67;18.00;;;;;-147.17;100.00;50273.16;5053837;28;53122;-56
2021/10/29 00:04:34;;;;;;;;;20.50;19.00;;;;;-147.17;100.00;50247.56;5053886;28;51244;-56
2021/10/29 00:06:59;;;;;;;;;15.67;15.00;;;;;-147.17;100.00;50245.59;5052632;28;51332;-56
2021/10/29 00:09:25;;;;;;;;;13.67;13.33;;;;;-147.17;100.00;50218.03;5053381;28;51054;-55
2021/10/29 00:11:50;;;;;;;;;20.00;18.00;;;;;-147.17;100.00;50241.66;5053009;28;51189;-53
2021/10/29 00:14:16;;;;;;;;;19.00;17.67;;;;;-147.17;100.00;50245.59;5051918;28;52343;-54
2021/10/29 00:16:41;;;;;;;;;17.00;16.00;;;;;-147.17;100.00;50251.50;5054594;28;51541;-56
2021/10/29 00:19:06;;;;;;;;;32.25;30.75;;;;;-147.17;100.00;50206.22;5053076;28;51765;-56
2021/10/29 00:21:32;;;;;;;;;15.00;15.00;;;;;-147.17;100.00;50237.72;5053241;28;52592;-59
2021/10/29 00:23:57;;;;;;;;;17.75;15.75;;;;;-147.17;100.00;50241.66;5053788;28;51353;-56
2021/10/29 00:26:24;;;;;;;;;15.67;15.00;;;;;-147.17;100.00;50237.72;5052740;28;53322;-55
2021/10/29 00:28:49;;;;;;;;;17.75;17.00;;;;;-147.17;100.00;50283.00;5050093;28;51442;-56
2021/10/29 00:31:14;;;;;;;;;15.75;15.75;;;;;-147.17;100.00;50290.88;5053502;28;51141;-56
2021/10/29 00:33:40;;;;;;;;;15.25;15.25;;;;;-147.17;100.00;50210.16;5054283;28;51911;-57
2021/10/29 00:36:06;;;;;;;;;17.25;17.00;;;;;-147.17;100.00;50206.22;5050110;28;51176;-57
2021/10/29 00:38:31;;;;;;;;;19.00;17.75;;;;;-147.17;100.00;50202.28;5054521;28;53220;-57
2021/10/29 00:40:57;;;;;;;;;19.50;18.50;;;;;-147.17;100.00;50231.81;5053746;28;53329;-55
2021/10/29 00:43:22;;;;;;;;;18.75;18.00;;;;;-147.17;100.00;50223.94;5053371;28;52273;-56
2021/10/29 00:45:48;;;;;;;;;19.50;17.75;;;;;-147.17;100.00;50221.97;5053337;28;51205;-55
2021/10/29 00:48:13;;;;;;;;;18.50;17.75;;;;;-147.17;100.00;50168.81;5053284;28;51237;-53
2021/10/29 00:50:40;;;;;;;;;20.50;19.50;;;;;-147.17;100.00;50174.72;5053144;28;51490;-55
2021/10/29 00:53:06;;;;;;;;;16.00;14.75;;;;;-147.17;100.00;50190.47;5052955;28;51879;-56
2021/10/29 00:55:32;;;;;;;;;18.25;17.00;;;;;-147.17;100.00;50200.31;5052703;28;53302;-56
2021/10/29 00:57:57;;;;;;;;;16.25;16.25;;;;;-147.17;100.00;50212.13;5053980;28;53470;-55
2021/10/29 01:00:23;;;;;;;;;17.25;16.25;;;;;-147.17;100.00;50176.69;5053540;28;51382;-56
2021/10/29 01:02:49;;;;;;;;;17.75;16.75;;;;;-147.17;100.00;50196.38;5053758;28;51225;-57
2021/10/29 01:05:14;;;;;;;;;12.67;12.67;;;;;-147.17;100.00;50182.59;5052872;28;51307;-57
2021/10/29 01:07:40;;;;;;;;;17.50;16.00;;;;;-147.17;100.00;50182.59;5053140;28;51427;-57
2021/10/29 01:10:07;;;;;;;;;13.67;13.00;;;;;-147.17;100.00;50186.53;5053892;28;51141;-56
2021/10/29 01:12:32;;;;;;;;;12.75;11.00;;;;;-147.17;100.00;50168.81;5053233;28;52085;-57
2021/10/29 01:15:00;;;;;;;;;15.50;15.00;;;;;-147.17;100.00;50153.06;5053860;28;53414;-56
2021/10/29 01:17:27;;;;;;;;;16.00;15.50;;;;;-147.17;100.00;50186.53;5035390;28;51288;-56
2021/10/29 01:19:55;;;;;;;;;18.00;17.75;;;;;-147.17;100.00;50151.09;5052449;28;51349;-57
2021/10/29 01:22:23;;;;;;;;;16.25;16.25;;;;;-147.17;100.00;50119.59;5052236;28;52239;-56
2021/10/29 01:24:51;;;;;;;;;19.00;16.75;;;;;-147.17;100.00;50166.84;5052434;28;53211;-56
2021/10/29 01:27:17;;;;;;;;;19.00;17.25;;;;;-147.17;100.00;50145.19;5056864;28;53126;-55
2021/10/29 01:29:47;;;;;;;;;14.00;13.00;;;;;-147.17;100.00;50174.72;5038950;28;51236;-55
2021/10/29 01:32:13;;;;;;;;;18.25;17.75;;;;;-147.17;100.00;50131.41;5035549;28;53133;-56
2021/10/29 01:34:39;;;;;;;;;17.00;16.00;;;;;-147.17;100.00;50139.28;5056581;28;51389;-53
2021/10/29 01:37:06;;;;;;;;;16.50;16.00;;;;;-147.17;100.00;50123.53;5057517;28;53067;-58
2021/10/29 01:39:33;;;;;;;;;18.75;18.00;;;;;-147.17;100.00;50149.13;5057400;28;51180;-55
2021/10/29 01:41:59;;;;;;;;;17.50;16.00;;;;;-147.17;100.00;50149.13;5055003;28;51243;-55
2021/10/29 01:44:24;;;;;;;;;13.25;13.25;;;;;-147.17;100.00;50151.09;5055560;28;51184;-56
2021/10/29 01:46:50;;;;;;;;;16.00;15.50;;;;;-147.17;100.00;50162.91;5039394;28;53480;-54
2021/10/29 01:49:16;;;;;;;;;17.50;16.50;;;;;-147.17;100.00;50119.59;5055688;28;51279;-56
2021/10/29 01:51:44;;;;;;;;;14.75;13.25;;;;;-147.17;100.00;50143.22;5056597;28;53306;-55
2021/10/29 01:54:09;;;;;;;;;16.00;15.75;;;;;-147.17;100.00;50113.69;5038862;28;51208;-56
2021/10/29 01:56:34;;;;;;;;;11.50;11.00;;;;;-147.17;100.00;50111.72;5056642;28;51647;-56
2021/10/29 01:59:00;;;;;;;;;14.00;13.25;;;;;-147.17;100.00;50115.66;5051882;28;52858;-56
2021/10/29 02:01:25;;;;;;;;;14.75;14.00;;;;;-147.17;100.00;50151.09;5036517;28;52267;-54
2021/10/29 02:03:51;;;;;;;;;15.25;13.75;;;;;-147.17;100.00;50139.28;5059804;28;53398;-54
2021/10/29 02:06:17;;;;;;;;;15.00;15.00;;;;;-147.17;100.00;50147.16;5056557;28;51323;-58
2021/10/29 02:08:43;;;;;;;;;16.00;15.50;;;;;-147.17;100.00;50145.19;5058063;28;51360;-56
2021/10/29 02:11:09;;;;;;;;;14.25;14.25;;;;;-147.17;100.00;50139.28;5055239;28;51196;-55
2021/10/29 02:13:34;;;;;;;;;13.50;13.00;;;;;-147.17;100.00;50139.28;5056480;28;51599;-54
2021/10/29 02:15:59;;;;;;;;;16.00;14.50;;;;;-147.17;100.00;50121.56;5055766;28;52748;-55
2021/10/29 02:18:25;;;;;;;;;15.25;14.00;;;;;-147.17;100.00;50107.78;5056414;28;51398;-55
2021/10/29 02:20:50;;;;;;;;;19.25;15.00;;;;;-147.17;100.00;50113.69;5055629;28;53924;-55
2021/10/29 02:23:16;;;;;;;;;11.75;10.00;;;;;-147.17;100.00;50095.97;5055625;28;51210;-55
2021/10/29 02:25:44;;;;;;;;;14.75;13.25;;;;;-147.17;100.00;50099.91;5055114;28;51151;-56
2021/10/29 02:28:11;;;;;;;;;14.25;14.00;;;;;-147.17;100.00;50119.59;5056823;28;53120;-55
2021/10/29 02:30:36;;;;;;;;;19.50;18.50;;;;;-147.17;100.00;50123.53;5055327;28;51935;-54
2021/10/29 02:33:02;;;;;;;;;13.00;12.75;;;;;-147.17;100.00;50133.38;5055238;28;53454;-54
2021/10/29 02:35:27;;;;;;;;;8.25;7.75;;;;;-147.17;100.00;50121.56;5038463;28;51456;-56
2021/10/29 02:37:52;;;;;;;;;13.00;11.00;;;;;-147.17;100.00;50125.50;5056227;28;51369;-52
2021/10/29 02:40:18;;;;;;;;;13.50;13.00;;;;;-147.17;100.00;50088.13;5055609;28;52633;-55
2021/10/29 02:42:43;;;;;;;;;15.75;12.50;;;;;-147.17;100.00;50109.75;5036443;28;51168;-54
2021/10/29 02:45:09;;;;;;;;;11.75;11.25;;;;;-147.17;100.00;50107.78;5054915;28;51256;-54
2021/10/29 02:47:34;;;;;;;;;15.00;15.00;;;;;-147.17;100.00;50111.72;5055911;28;51171;-55
2021/10/29 02:50:00;;;;;;;;;14.50;12.75;;;;;-147.17;100.00;50141.25;5053751;28;51805;-55
2021/10/29 02:52:25;;;;;;;;;10.25;10.25;;;;;-147.17;100.00;50139.28;5055746;28;51205;-56
2021/10/29 02:54:50;;;;;;;;;13.25;13.00;;;;;-147.17;100.00;50127.47;5056164;28;51163;-56
2021/10/29 02:57:16;;;;;;;;;11.50;10.00;;;;;-147.17;100.00;50125.50;5052683;28;51359;-55
2021/10/29 02:59:41;;;;;;;;;15.75;14.75;;;;;-147.17;100.00;50155.03;5054149;28;53260;-56
2021/10/29 03:02:07;;;;;;;;;11.75;11.00;;;;;-147.17;100.00;50092.03;5054898;28;51340;-56
2021/10/29 03:04:32;;;;;;;;;15.75;14.75;;;;;-147.17;100.00;50115.66;5055736;28;51547;-54
2021/10/29 03:06:58;;;;;;;;;12.75;12.00;;;;;-147.17;100.00;50127.47;5056608;28;51334;-56
2021/10/29 03:09:23;;;;;;;;;14.00;13.50;;;;;-147.17;100.00;50125.50;5055214;28;51927;-54
2021/10/29 03:11:49;;;;;;;;;12.25;12.00;;;;;-147.17;100.00;50143.22;5055286;28;53481;-54
2021/10/29 03:14:14;;;;;;;;;13.50;12.75;;;;;-147.17;100.00;50121.56;5055040;28;51669;-56
2021/10/29 03:16:39;;;;;;;;;14.00;13.75;;;;;-147.17;100.00;50158.97;5055694;28;53009;-56
2021/10/29 03:19:05;;;;;;;;;13.25;13.00;;;;;-147.17;100.00;50121.56;5054724;28;52249;-55
2021/10/29 03:21:31;;;;;;;;;13.25;12.25;;;;;-147.17;100.00;50151.09;5054880;28;51522;-55
2021/10/29 03:23:56;;;;;;;;;14.25;12.75;;;;;-147.17;100.00;50147.16;5037057;28;51222;-56
2021/10/29 03:26:22;;;;;;;;;13.00;12.25;;;;;-147.17;100.00;50147.16;5043293;28;53394;-56
2021/10/29 03:28:47;;;;;;;;;12.25;10.25;;;;;-147.17;100.00;50153.06;5055260;28;52107;-56
2021/10/29 03:31:12;;;;;;;;;14.00;13.00;;;;;-147.17;100.00;50162.91;5052809;28;53212;-56
2021/10/29 03:33:39;;;;;;;;;12.25;11.50;;;;;-147.17;100.00;50168.81;5055860;28;51260;-56
2021/10/29 03:36:06;;;;;;;;;16.00;14.75;;;;;-147.17;100.00;50182.59;5054691;28;51979;-56
2021/10/29 03:38:44;;;;;;;;;14.25;13.75;;;;;-147.17;100.00;50162.91;5054341;28;52191;-55
2021/10/29 03:41:11;;;;;;;;;11.75;10.25;;;;;-147.17;100.00;50133.38;5053779;28;53387;-56
2021/10/29 03:43:45;;;;;;;;;11.75;9.75;;;;;-147.17;100.00;50139.28;5055185;28;51474;-56
2021/10/29 03:46:22;;;;;;;;;11.75;11.75;;;;;-147.17;100.00;50174.72;5037511;28;51412;-56
2021/10/29 03:51:28;;;;;;;;;15.00;13.25;;;;;-147.17;100.00;50147.16;5054841;28;51348;-56
2021/10/29 03:54:05;;;;;;;;;14.00;13.00;;;;;-147.17;100.00;50166.84;5055980;28;51103;-54
2021/10/29 03:56:41;;;;;;;;;12.50;10.75;;;;;-147.17;100.00;50166.84;5054329;28;53155;-56
2021/10/29 03:59:06;;;;;;;;;13.50;12.25;;;;;-147.17;100.00;50119.59;5040075;28;53191;-55
2021/10/29 04:01:33;;;;;;;;;14.00;12.75;;;;;-147.17;100.00;50137.31;5055336;28;53143;-55
2021/10/29 04:03:59;;;;;;;;;12.75;12.25;;;;;-147.17;100.00;50145.19;5054463;28;51333;-55
2021/10/29 04:06:24;;;;;;;;;13.75;13.75;;;;;-147.17;100.00;50164.88;5041184;28;51343;-55
2021/10/29 04:08:49;;;;;;;;;11.50;11.00;;;;;-147.17;100.00;50139.28;5054902;28;51855;-54
2021/10/29 04:11:20;;;;;;;;;11.25;11.00;;;;;-147.17;100.00;50135.34;5053024;28;51181;-56
2021/10/29 04:13:46;;;;;;;;;8.00;8.00;;;;;-147.17;100.00;50141.25;5054667;28;53438;-55
2021/10/29 04:16:11;;;;;;;;;12.00;11.67;;;;;-147.17;100.00;50094.00;5055574;28;53388;-53
2021/10/29 04:18:38;;;;;;;;;11.00;11.00;;;;;-147.17;100.00;50111.72;5053484;28;51330;-55
2021/10/29 04:21:03;;;;;;;;;8.67;8.67;;;;;-147.17;100.00;50125.50;5053568;28;51190;-56
2021/10/29 04:23:29;;;;;;;;;9.25;9.25;;;;;-147.17;100.00;50127.47;5054675;28;53104;-56
2021/10/29 04:25:55;;;;;;;;;13.75;13.00;;;;;-147.17;100.00;50103.84;5055802;28;53514;-55
2021/10/29 04:28:21;;;;;;;;;10.67;10.67;;;;;-147.17;100.00;50127.47;5054557;28;51642;-55
2021/10/29 04:30:46;;;;;;;;;9.25;9.25;;;;;-147.17;100.00;50139.28;5054304;28;51366;-55
2021/10/29 04:33:13;;;;;;;;;16.00;15.50;;;;;-147.17;100.00;50115.66;5055522;28;51343;-54
2021/10/29 04:35:42;;;;;;;;;10.33;10.33;;;;;-147.17;100.00;50147.16;5055031;28;51396;-55
2021/10/29 04:38:09;;;;;;;;;11.25;9.25;;;;;-147.17;100.00;50135.34;5052543;28;51957;-55
2021/10/29 04:40:36;;;;;;;;;11.00;10.75;;;;;-147.17;100.00;50123.53;5054564;28;51190;-53
2021/10/29 04:43:06;;;;;;;;;9.00;8.00;;;;;-147.17;100.00;50101.88;5054170;28;51343;-56
2021/10/29 04:45:32;;;;;;;;;12.00;11.75;;;;;-147.17;100.00;50113.69;5054575;28;53219;-55
2021/10/29 04:47:58;;;;;;;;;9.33;8.33;;;;;-147.17;100.00;50119.59;5036296;28;51243;-55
2021/10/29 04:50:24;;;;;;;;;11.50;11.50;;;;;-147.17;100.00;50109.75;5034429;28;51252;-56
2021/10/29 04:52:50;;;;;;;;;9.50;9.50;;;;;-147.17;100.00;50117.63;5053900;28;53450;-53
2021/10/29 04:55:15;;;;;;;;;9.00;9.00;;;;;-147.17;100.00;50123.53;5054984;28;51301;-56
2021/10/29 04:57:40;;;;;;;;;11.75;10.75;;;;;-147.17;100.00;50101.88;5052300;28;51583;-55
2021/10/29 05:00:08;;;;;;;;;11.75;10.75;;;;;-147.17;100.00;50149.13;5052885;28;51229;-54
2021/10/29 05:02:34;;;;;;;;;11.00;11.00;;;;;-147.17;100.00;50099.91;5055582;28;53188;-55
2021/10/29 05:05:03;;;;;;;;;11.00;11.00;;;;;-147.17;100.00;50078.28;5055683;28;51461;-55
2021/10/29 05:07:28;;;;;;;;;11.00;11.00;;;;;-147.17;100.00;50107.78;5058312;28;51273;-56
2021/10/29 05:09:54;;;;;;;;;11.25;10.00;;;;;-147.17;100.00;50088.13;5056843;28;51249;-55
2021/10/29 05:12:19;;;;;;;;;13.75;12.00;;;;;-147.17;100.00;50101.88;5056578;28;51149;-55
2021/10/29 05:14:44;;;;;;;;;13.00;11.25;;;;;-147.17;100.00;50099.91;5057392;28;51309;-54
2021/10/29 05:17:10;;;;;;;;;12.75;12.00;;;;;-147.17;100.00;50107.78;5055221;28;51675;-54
2021/10/29 05:19:35;;;;;;;;;12.00;12.00;;;;;-147.17;100.00;50105.81;5057235;28;51371;-55
2021/10/29 05:22:01;;;;;;;;;13.00;13.00;;;;;-147.17;100.00;50119.59;5055460;28;51215;-52
2021/10/29 05:24:26;;;;;;;;;8.00;8.00;;;;;-147.17;100.00;50068.44;5058500;28;53612;-55
2021/10/29 05:26:51;;;;;;;;;11.00;11.00;;;;;-147.17;100.00;50090.09;5056326;28;54331;-54
2021/10/29 05:29:17;;;;;;;;;11.33;10.33;;;;;-147.17;100.00;50129.44;5058481;28;52445;-56
2021/10/29 05:31:42;;;;;;;;;14.00;11.75;;;;;-147.17;100.00;50088.13;5039336;28;53230;-55
2021/10/29 05:34:08;;;;;;;;;11.50;10.50;;;;;-147.17;100.00;50097.94;5056589;28;51391;-55
2021/10/29 05:36:35;;;;;;;;;13.00;10.75;;;;;-147.17;100.00;50076.31;5056420;28;51689;-54
2021/10/29 05:39:02;;;;;;;;;11.75;10.75;;;;;-147.17;100.00;50111.72;5057518;28;51142;-53
2021/10/29 05:41:27;;;;;;;;;14.50;13.75;;;;;-147.17;100.00;50086.16;5056955;28;53150;-55
2021/10/29 05:43:53;;;;;;;;;12.25;12.00;;;;;-147.17;100.00;50084.19;5057442;28;51396;-56
2021/10/29 05:46:19;;;;;;;;;9.25;8.50;;;;;-147.17;100.00;50088.13;5056572;28;51857;-55
2021/10/29 05:48:45;;;;;;;;;13.75;13.75;;;;;-147.17;100.00;50107.78;5056678;28;53392;-54
2021/10/29 05:51:11;;;;;;;;;12.50;9.50;;;;;-147.17;100.00;50115.66;5038591;28;53398;-55
2021/10/29 05:56:12;;;;;;;;;12.00;11.75;;;;;-147.17;100.00;50056.63;5055073;28;51192;-56
2021/10/29 05:58:38;;;;;;;;;13.50;12.25;;;;;-147.17;100.00;50084.19;5056310;28;53240;-56
2021/10/29 06:01:03;;;;;;;;;11.75;11.50;;;;;-147.17;100.00;50107.78;5057473;28;53167;-55
2021/10/29 06:03:29;;;;;;;;;12.00;12.00;;;;;-147.17;100.00;50080.25;5057080;28;51333;-55
2021/10/29 06:05:55;;;;;;;;;10.50;10.50;;;;;-147.17;100.00;50048.75;5056833;28;51775;-55
2021/10/29 06:08:21;;;;;;;;;10.50;9.50;;;;;-147.17;100.00;50062.53;5056117;28;51187;-55
2021/10/29 06:10:46;;;;;;;;;12.50;12.00;;;;;-147.17;100.00;50056.63;5055934;28;51201;-56
2021/10/29 06:13:12;;;;;;;;;13.75;13.25;;;;;-147.17;100.00;50066.47;5056381;28;51358;-55
2021/10/29 06:15:42;;;;;;;;;14.25;13.50;;;;;-147.17;100.00;50056.63;5057122;28;51872;-56
2021/10/29 06:18:07;;;;;;;;;14.25;13.50;;;;;-147.17;100.00;50070.41;5022419;28;51444;-55
2021/10/29 06:20:33;;;;;;;;;4.50;4.50;;;;;-147.17;100.00;50066.47;5055450;28;51090;-55
2021/10/29 06:22:59;;;;;;;;;13.00;13.00;;;;;-147.17;100.00;50062.53;5056821;28;53115;-53
2021/10/29 06:25:27;;;;;;;;;14.75;13.25;;;;;-147.17;100.00;50099.91;5055123;28;51176;-54
2021/10/29 06:30:40;;;;;;;;;13.00;12.50;;;;;-147.17;100.00;50094.00;5056645;28;51376;-56
2021/10/29 06:33:07;;;;;;;;;12.75;12.50;;;;;-147.17;100.00;50090.09;5055757;28;51359;-55
2021/10/29 06:35:33;;;;;;;;;13.00;13.00;;;;;-147.17;100.00;50082.22;5054517;28;52134;-55
2021/10/29 06:37:59;;;;;;;;;9.50;9.50;;;;;-147.17;100.00;50084.19;5036210;28;51251;-55
2021/10/29 06:40:26;;;;;;;;;12.00;12.00;;;;;-147.17;100.00;50078.28;5056211;28;51556;-55
2021/10/29 06:42:55;;;;;;;;;6.50;6.50;;;;;-147.17;100.00;50101.88;5055891;28;51140;-54
2021/10/29 06:48:14;;;;;;;;;13.50;12.50;;;;;-147.17;100.00;50060.56;5055441;28;53200;-55
2021/10/29 07:39:56;;;;;;;;;10.33;10.33;;;;;-147.17;100.00;50113.69;5054764;28;51279;-56
2021/10/29 07:40:08;;;;;;;;;11.00;9.33;;;;;-147.17;100.00;50170.78;5053787;28;51483;-59
2021/10/29 07:42:53;;;;;;;;;7.33;7.00;;;;;-147.17;100.00;50149.13;5053776;28;51152;-57
2021/10/29 07:45:20;;;;;;;;;7.33;7.00;;;;;-147.17;100.00;50176.69;5054134;28;53177;-58
2021/10/29 07:47:46;;;;;;;;;8.33;8.33;;;;;-147.17;100.00;50176.69;5055075;28;51165;-58
2021/10/29 07:50:14;;;;;;;;;9.33;9.33;;;;;-147.17;100.00;50188.50;5053291;28;52085;-58
2021/10/29 07:52:41;;;;;;;;;7.67;7.67;;;;;-147.17;100.00;50178.66;5054407;28;51173;-57
2021/10/29 07:55:10;;;;;;;;;8.00;7.33;;;;;-147.17;100.00;50206.22;5054424;28;51204;-58
2021/10/29 07:57:36;;;;;;;;;9.00;8.00;;;;;-147.17;100.00;50231.81;5053778;28;51278;-58
2021/10/29 08:00:06;;;;;;;;;7.00;7.00;;;;;-147.17;100.00;50206.22;5054655;28;51264;-58
2021/10/29 08:02:32;;;;;;;;;9.00;8.00;;;;;-147.17;100.00;50192.44;5054410;28;53173;-59
2021/10/29 08:04:57;;;;;;;;;8.00;8.00;;;;;-147.17;100.00;50164.88;5053942;28;51288;-55
2021/10/29 08:07:23;;;;;;;;;9.00;8.00;;;;;-147.17;100.00;50168.81;5055789;28;51313;-59
2021/10/29 08:09:49;;;;;;;;;7.33;7.33;;;;;-147.17;100.00;50214.09;5053641;28;51509;-57
2021/10/29 08:12:16;;;;;;;;;9.00;8.00;;;;;-147.17;100.00;50206.22;5053933;28;51274;-56
2021/10/29 08:14:42;;;;;;;;;6.00;6.00;;;;;-147.17;100.00;50200.31;5052584;27;53398;-57
2021/10/29 08:17:08;;;;;;;;;8.67;8.67;;;;;-147.17;100.00;50214.09;5053602;28;51176;-57
2021/10/29 08:19:34;;;;;;;;;8.33;7.00;;;;;-147.17;100.00;50180.63;5053370;28;51201;-58
2021/10/29 08:22:01;;;;;;;;;7.00;7.00;;;;;-147.17;100.00;50225.91;5054307;28;52492;-57
2021/10/29 08:24:27;;;;;;;;;7.33;7.00;;;;;-147.17;100.00;50227.88;5053625;28;51323;-56
2021/10/29 08:26:54;;;;;;;;;7.00;6.67;;;;;-147.17;100.00;50221.97;5053679;28;51475;-57
2021/10/29 08:29:20;;;;;;;;;11.33;11.00;;;;;-147.17;100.00;50225.91;5053150;28;51817;-59
2021/10/29 08:31:47;;;;;;;;;8.00;7.67;;;;;-147.17;100.00;50239.69;5052085;28;53379;-58
2021/10/29 08:34:12;;;;;;;;;9.00;8.00;;;;;-147.17;100.00;50239.69;5052870;28;51315;-60
2021/10/29 08:36:39;;;;;;;;;10.67;10.00;;;;;-147.17;100.00;50237.72;5034556;28;51472;-57
2021/10/29 08:39:07;;;;;;;;;11.00;10.00;;;;;-147.17;100.00;50239.69;5055874;28;53058;-57
2021/10/29 08:41:35;;;;;;;;;8.00;8.00;;;;;-147.17;100.00;50208.19;5037824;28;51344;-58
2021/10/29 08:44:00;;;;;;;;;11.00;9.33;;;;;-147.17;100.00;50186.53;5057030;28;51197;-57
2021/10/29 08:46:28;;;;;;;;;10.00;10.00;;;;;-147.17;100.00;50225.91;5057379;28;51378;-57
2021/10/29 08:48:55;;;;;;;;;6.33;6.33;;;;;-147.17;100.00;50227.88;5056642;28;51741;-55
2021/10/29 08:51:21;;;;;;;;;8.33;8.00;;;;;-147.17;100.00;50223.94;5044582;28;51330;-58
2021/10/29 08:53:47;;;;;;;;;7.00;6.33;;;;;-147.17;100.00;50221.97;5020336;28;52477;-58
2021/10/29 08:56:13;;;;;;;;;7.33;7.00;;;;;-147.17;100.00;50241.66;5054111;28;51525;-57
2021/10/29 08:59:19;;;;;;;;;7.67;7.33;;;;;-147.17;100.00;50218.03;5057418;28;54152;-58
2021/10/29 09:01:50;;;;;;;;;11.33;11.00;;;;;-147.17;100.00;50227.88;5038341;28;51299;-56
2021/10/29 09:04:20;;;;;;;;;9.67;9.00;;;;;-147.17;100.00;50210.16;5056180;28;51275;-58
2021/10/29 09:06:56;;;;;;;;;9.67;9.00;;;;;-147.17;100.00;50221.97;5056516;28;53538;-58
2021/10/29 09:09:41;;;;;;;;;7.33;7.00;;;;;-147.17;100.00;50206.22;5056465;28;52903;-57
2021/10/29 09:31:35;;;;;;;;;13.00;11.67;;;;;-147.17;100.00;50208.19;5055959;28;51636;-59
2021/10/29 09:34:07;;;;;;;;;9.67;9.00;;;;;-147.17;100.00;50182.59;5059775;28;53135;-58
2021/10/29 09:36:41;;;;;;;;;10.00;10.00;;;;;-147.17;100.00;50200.31;5056495;28;51174;-59
2021/10/29 09:39:09;;;;;;;;;8.67;7.67;;;;;-147.17;100.00;50208.19;5056141;28;53461;-59
2021/10/29 09:41:36;;;;;;;;;8.33;8.00;;;;;-147.17;100.00;50221.97;5038141;28;52293;-58
2021/10/29 09:44:09;;;;;;;;;8.00;6.33;;;;;-147.17;100.00;50210.16;5057078;28;51268;-59
2021/10/29 09:46:58;;;;;;;;;6.67;6.67;;;;;-147.17;100.00;50176.69;5056814;28;51348;-59
2021/10/29 09:49:33;;;;;;;;;6.00;6.00;;;;;-147.17;100.00;50221.97;5038711;28;51253;-58
2021/10/29 09:57:33;;;;;;;;;8.33;7.33;;;;;-147.17;100.00;50277.09;5055856;28;51250;-58
2021/10/29 10:00:00;;;;;;;;;9.00;8.00;;;;;-147.17;100.00;50243.63;5056674;28;51378;-58
2021/10/29 10:02:28;;;;;;;;;9.67;8.00;;;;;-147.17;100.00;50257.41;5054944;28;51482;-58
2021/10/29 10:04:59;;;;;;;;;7.00;6.00;;;;;-147.17;100.00;50247.56;5056223;28;51185;-58
2021/10/29 10:07:26;;;;;;;;;7.67;7.00;;;;;-147.17;100.00;50214.09;5055370;28;51385;-58
2021/10/29 10:09:57;;;;;;;;;7.00;7.00;;;;;-147.17;100.00;50247.56;5055925;28;51513;-58
2021/10/29 10:12:27;;;;;;;;;9.00;9.00;;;;;-147.17;100.00;50204.25;5055050;28;53342;-58
2021/10/29 10:14:57;;;;;;;;;8.00;6.67;;;;;-147.17;100.00;50190.47;5055841;28;53585;-59
2021/10/29 10:17:23;;;;;;;;;11.33;9.00;;;;;-147.17;100.00;50178.66;5054747;28;51333;-58
2021/10/29 10:19:50;;;;;;;;;3.00;3.00;;;;;-147.17;100.00;50137.31;5055979;28;51324;-58
2021/10/29 10:22:21;;;;;;;;;9.00;8.00;;;;;-147.17;100.00;50115.66;5054872;28;51173;-57
2021/10/29 10:24:52;;;;;;;;;6.00;6.00;;;;;-147.17;100.00;50084.19;5034379;28;51228;-57
2021/10/29 10:48:39;;;;;;;;;10.00;8.33;;;;;-147.17;100.00;49867.66;5056460;28;53777;-58
2021/10/29 10:54:34;;;;;;;;;12.00;12.00;;;;;-147.17;100.00;49834.19;5055494;28;51263;-58
2021/10/29 11:10:18;;;;;;;;;9.00;9.00;;;;;-147.17;100.00;49802.69;5052473;28;52918;-58
2021/10/29 11:12:44;;;;;;;;;15.33;13.00;;;;;-147.17;100.00;49718.06;5054546;28;51358;-59
2021/10/29 11:15:27;;;;;;;;;13.00;13.00;;;;;-147.17;100.00;49678.69;5054689;28;53009;-59
2021/10/29 11:18:15;;;;;;;;;11.33;10.67;;;;;-147.17;100.00;49684.59;5056652;28;51355;-58
2021/10/29 11:20:43;;;;;;;;;14.00;13.00;;;;;-147.17;100.00;49718.06;5056022;28;51273;-59
2021/10/29 11:23:27;;;;;;;;;14.33;13.33;;;;;-147.17;100.00;49647.22;5055779;28;51362;-58
2021/10/29 11:26:05;;;;;;;;;8.67;8.67;;;;;-147.17;100.00;49714.13;5054639;28;52386;-57
2021/10/29 11:28:43;;;;;;;;;12.00;11.00;;;;;-147.17;100.00;49678.69;5057852;28;53115;-57
2021/10/29 11:31:12;;;;;;;;;11.67;11.00;;;;;-147.17;100.00;49698.38;5055054;28;51640;-59
2021/10/29 11:33:46;;;;;;;;;8.33;8.33;;;;;-147.17;100.00;49700.34;5054468;28;51116;-59
2021/10/29 11:36:14;;;;;;;;;10.00;10.00;;;;;-147.17;100.00;49670.81;5036915;28;53014;-56
2021/10/29 11:38:42;;;;;;;;;11.33;11.33;;;;;-147.17;100.00;49694.44;5054864;28;51207;-57
2021/10/29 11:41:11;;;;;;;;;13.00;12.00;;;;;-147.17;100.00;49643.28;5054429;28;51377;-58
2021/10/29 11:43:37;;;;;;;;;17.75;15.25;;;;;-147.17;100.00;49674.75;5055090;28;51327;-58
2021/10/29 11:46:05;;;;;;;;;13.33;13.00;;;;;-147.17;100.00;49686.56;5055213;28;56054;-57
2021/10/29 11:48:51;;;;;;;;;14.75;13.00;;;;;-147.17;100.00;49659.03;5054489;28;51186;-57
2021/10/29 11:51:17;;;;;;;;;13.33;10.33;;;;;-147.17;100.00;49676.72;5039743;28;51339;-58
2021/10/29 11:53:52;;;;;;;;;18.50;16.75;;;;;-147.17;100.00;49678.69;5051159;28;51476;-57
2021/10/29 12:07:20;;;;;;;;;9.33;8.33;;;;;-147.17;100.00;49666.88;5052681;28;53738;-58
2021/10/29 12:10:05;;;;;;;;;18.67;17.00;;;;;-147.17;100.00;49668.84;5054531;28;51395;-58
2021/10/29 12:12:33;;;;;;;;;15.67;14.00;;;;;-147.17;100.00;49678.69;5051950;27;51342;-58
2021/10/29 12:15:07;;;;;;;;;21.25;17.50;;;;;-147.17;100.00;49692.47;5055251;28;53440;-58
2021/10/29 12:20:03;;;;;;;;;17.00;15.25;;;;;-147.17;100.00;49639.34;5054922;28;53294;-59
2021/10/29 12:27:46;;;;;;;;;16.33;15.00;;;;;-147.17;100.00;49682.63;5052340;28;51174;-58
2021/10/29 12:30:33;;;;;;;;;16.00;14.00;;;;;-147.17;100.00;49672.78;5053113;28;51200;-58
2021/10/29 13:03:09;;;;;;;;;16.75;16.00;;;;;-147.17;100.00;49757.44;5050672;28;51226;-58
2021/10/29 13:05:38;;;;;;;;;14.00;14.00;;;;;-147.17;100.00;49784.97;5052415;28;51193;-57
2021/10/29 13:08:20;;;;;;;;;19.25;18.75;;;;;-147.17;100.00;49769.25;5051991;28;51591;-58
2021/10/29 13:10:49;;;;;;;;;11.67;11.67;;;;;-147.17;100.00;49814.50;5052931;28;52816;-57
2021/10/29 13:16:13;;;;;;;;;14.67;13.67;;;;;-147.17;100.00;49832.22;5016936;28;52892;-58
2021/10/29 13:19:12;;;;;;;;;12.00;12.00;;;;;-147.17;100.00;49812.53;5052416;28;51126;-58
2021/10/29 13:35:05;;;;;;;;;7.67;7.67;;;;;-147.17;100.00;49859.78;5054067;28;51265;-58
2021/10/29 13:53:53;;;;;;;;;13.00;12.00;;;;;-147.17;100.00;49698.38;5053965;28;53392;-59
2021/10/29 14:31:10;;;;;;;;;12.00;12.00;;;;;-147.17;100.00;49495.66;5056545;28;51345;-58
2021/10/29 14:33:39;;;;;;;;;16.33;14.00;;;;;-147.17;100.00;49544.88;5054308;28;51295;-58
2021/10/29 14:36:09;;;;;;;;;12.67;12.33;;;;;-147.17;100.00;49509.44;5036885;28;52991;-59
2021/10/29 14:38:46;;;;;;;;;9.67;9.67;;;;;-147.17;100.00;49491.72;5056107;28;51278;-58
2021/10/29 14:41:38;;;;;;;;;14.00;13.25;;;;;-147.17;100.00;49491.72;5053847;27;51096;-58
2021/10/29 14:44:05;;;;;;;;;12.33;11.00;;;;;-147.17;100.00;49491.72;5051325;28;51156;-57
2021/10/29 14:46:56;;;;;;;;;12.00;12.00;;;;;-147.17;100.00;49497.63;5053927;28;51436;-58
2021/10/29 15:03:29;;;;;;;;;16.50;15.25;;;;;-147.17;100.00;49430.72;5052601;28;51254;-58
2021/10/29 15:28:14;;;;;;;;;13.67;13.00;;;;;-147.17;100.00;49446.47;5018584;28;51488;-58
2021/10/29 15:51:34;;;;;;;;;14.25;14.25;;;;;-147.17;100.00;49456.28;5051510;28;51714;-58
2021/10/29 15:54:04;;;;;;;;;12.75;12.75;;;;;-147.17;100.00;49466.13;5053623;28;51277;-58
2021/10/29 15:57:04;;;;;;;;;13.33;11.67;;;;;-147.17;100.00;49472.03;5051553;28;51360;-59